Terminal Aerodrome Forecast
Issued by NWS

Home | Current Version | Previous Version | Text Only | Print | Product List | Glossary Off
Versions: 1 2 3 4 5 6 7 8 9 10 11 12 13

000
FTUS44 KTSA 210500
TAFMLC
TAF
KMLC 210520Z 2106/2206 14006KT P6SM SKC
     FM211500 19012G19KT P6SM SCT250
     FM220100 17006KT P6SM SCT250=

USA.gov is the U.S. government's official web portal to all federal, state and local government web resources and services.